sensor_id;sensor_type;location;lat;lon;timestamp;P1;durP1;ratioP1;P2;durP2;ratioP2
8050;SDS011;4068;42.158;24.732;2023-08-07T00:01:20;2.20;;;1.20;;
8050;SDS011;4068;42.158;24.732;2023-08-07T00:03:46;1.30;;;1.30;;
8050;SDS011;4068;42.158;24.732;2023-08-07T00:06:12;1.15;;;1.15;;
8050;SDS011;4068;42.158;24.732;2023-08-07T00:08:38;1.15;;;1.15;;
8050;SDS011;4068;42.158;24.732;2023-08-07T00:11:04;1.30;;;1.30;;
8050;SDS011;4068;42.158;24.732;2023-08-07T00:13:30;1.40;;;1.30;;
8050;SDS011;4068;42.158;24.732;2023-08-07T00:15:55;1.27;;;1.17;;
8050;SDS011;4068;42.158;24.732;2023-08-07T00:18:21;1.38;;;1.27;;
8050;SDS011;4068;42.158;24.732;2023-08-07T00:20:46;1.40;;;1.30;;
8050;SDS011;4068;42.158;24.732;2023-08-07T00:23:12;4.22;;;1.30;;
8050;SDS011;4068;42.158;24.732;2023-08-07T00:25:37;1.10;;;1.10;;
8050;SDS011;4068;42.158;24.732;2023-08-07T00:28:02;1.33;;;1.30;;
8050;SDS011;4068;42.158;24.732;2023-08-07T00:30:28;1.23;;;1.23;;
8050;SDS011;4068;42.158;24.732;2023-08-07T00:32:56;1.35;;;1.25;;
8050;SDS011;4068;42.158;24.732;2023-08-07T00:35:22;1.30;;;1.20;;
8050;SDS011;4068;42.158;24.732;2023-08-07T00:37:47;1.45;;;1.35;;
8050;SDS011;4068;42.158;24.732;2023-08-07T00:40:13;1.23;;;1.23;;
8050;SDS011;4068;42.158;24.732;2023-08-07T00:42:38;1.95;;;1.80;;
8050;SDS011;4068;42.158;24.732;2023-08-07T00:45:04;1.42;;;1.33;;
8050;SDS011;4068;42.158;24.732;2023-08-07T00:47:30;1.40;;;1.30;;
8050;SDS011;4068;42.158;24.732;2023-08-07T00:49:56;1.40;;;1.30;;
8050;SDS011;4068;42.158;24.732;2023-08-07T00:52:23;2.38;;;1.40;;
8050;SDS011;4068;42.158;24.732;2023-08-07T00:54:48;1.17;;;1.17;;
8050;SDS011;4068;42.158;24.732;2023-08-07T00:57:14;1.33;;;1.23;;
8050;SDS011;4068;42.158;24.732;2023-08-07T00:59:40;1.30;;;1.30;;
8050;SDS011;4068;42.158;24.732;2023-08-07T01:02:07;1.40;;;1.30;;
8050;SDS011;4068;42.158;24.732;2023-08-07T01:04:33;1.70;;;1.60;;
8050;SDS011;4068;42.158;24.732;2023-08-07T01:06:59;1.70;;;1.60;;
8050;SDS011;4068;42.158;24.732;2023-08-07T01:09:24;1.40;;;1.40;;
8050;SDS011;4068;42.158;24.732;2023-08-07T01:11:52;2.22;;;1.50;;
8050;SDS011;4068;42.158;24.732;2023-08-07T01:19:39;4.82;;;1.60;;
8050;SDS011;4068;42.158;24.732;2023-08-07T01:22:16;1.70;;;1.60;;
8050;SDS011;4068;42.158;24.732;2023-08-07T01:24:43;1.83;;;1.73;;
8050;SDS011;4068;42.158;24.732;2023-08-07T01:30:29;1.50;;;1.42;;
8050;SDS011;4068;42.158;24.732;2023-08-07T01:35:43;1.83;;;1.73;;
8050;SDS011;4068;42.158;24.732;2023-08-07T01:38:11;1.75;;;1.65;;
8050;SDS011;4068;42.158;24.732;2023-08-07T01:40:40;1.70;;;1.60;;
8050;SDS011;4068;42.158;24.732;2023-08-07T01:43:08;1.80;;;1.70;;
8050;SDS011;4068;42.158;24.732;2023-08-07T01:45:33;1.48;;;1.48;;
8050;SDS011;4068;42.158;24.732;2023-08-07T01:47:59;1.80;;;1.70;;
8050;SDS011;4068;42.158;24.732;2023-08-07T01:50:25;2.35;;;1.55;;
8050;SDS011;4068;42.158;24.732;2023-08-07T01:52:50;2.10;;;2.00;;
8050;SDS011;4068;42.158;24.732;2023-08-07T01:55:16;1.80;;;1.70;;
8050;SDS011;4068;42.158;24.732;2023-08-07T01:57:43;3.28;;;1.73;;
8050;SDS011;4068;42.158;24.732;2023-08-07T02:00:09;2.00;;;1.90;;
8050;SDS011;4068;42.158;24.732;2023-08-07T02:02:35;2.08;;;1.80;;
8050;SDS011;4068;42.158;24.732;2023-08-07T02:05:01;3.85;;;2.00;;
8050;SDS011;4068;42.158;24.732;2023-08-07T02:07:26;2.00;;;1.90;;
8050;SDS011;4068;42.158;24.732;2023-08-07T02:09:51;2.30;;;2.10;;
8050;SDS011;4068;42.158;24.732;2023-08-07T02:12:17;3.42;;;2.88;;
8050;SDS011;4068;42.158;24.732;2023-08-07T02:14:42;2.50;;;2.30;;
8050;SDS011;4068;42.158;24.732;2023-08-07T02:17:08;2.05;;;1.95;;
8050;SDS011;4068;42.158;24.732;2023-08-07T02:19:33;2.53;;;2.30;;
8050;SDS011;4068;42.158;24.732;2023-08-07T02:21:59;2.30;;;2.17;;
8050;SDS011;4068;42.158;24.732;2023-08-07T02:24:24;2.38;;;2.17;;
8050;SDS011;4068;42.158;24.732;2023-08-07T02:26:50;4.38;;;2.30;;
8050;SDS011;4068;42.158;24.732;2023-08-07T02:29:15;4.00;;;2.45;;
8050;SDS011;4068;42.158;24.732;2023-08-07T02:31:41;4.53;;;2.40;;
8050;SDS011;4068;42.158;24.732;2023-08-07T02:34:06;2.33;;;2.17;;
8050;SDS011;4068;42.158;24.732;2023-08-07T02:36:32;2.10;;;1.90;;
8050;SDS011;4068;42.158;24.732;2023-08-07T02:38:57;2.40;;;2.20;;
8050;SDS011;4068;42.158;24.732;2023-08-07T02:41:22;4.57;;;2.00;;
8050;SDS011;4068;42.158;24.732;2023-08-07T02:43:48;2.20;;;2.10;;
8050;SDS011;4068;42.158;24.732;2023-08-07T02:46:13;3.00;;;2.22;;
8050;SDS011;4068;42.158;24.732;2023-08-07T02:48:39;2.60;;;2.40;;
8050;SDS011;4068;42.158;24.732;2023-08-07T02:51:05;2.50;;;2.30;;
8050;SDS011;4068;42.158;24.732;2023-08-07T02:53:31;3.72;;;2.33;;
8050;SDS011;4068;42.158;24.732;2023-08-07T02:55:56;3.03;;;2.38;;
8050;SDS011;4068;42.158;24.732;2023-08-07T02:58:22;2.67;;;2.47;;
8050;SDS011;4068;42.158;24.732;2023-08-07T03:00:47;2.75;;;2.47;;
8050;SDS011;4068;42.158;24.732;2023-08-07T03:03:13;3.20;;;2.60;;
8050;SDS011;4068;42.158;24.732;2023-08-07T03:05:38;2.88;;;2.60;;
8050;SDS011;4068;42.158;24.732;2023-08-07T03:08:03;7.28;;;3.38;;
8050;SDS011;4068;42.158;24.732;2023-08-07T03:10:29;3.47;;;2.70;;
8050;SDS011;4068;42.158;24.732;2023-08-07T03:12:54;2.92;;;2.72;;
8050;SDS011;4068;42.158;24.732;2023-08-07T03:15:20;3.63;;;2.92;;
8050;SDS011;4068;42.158;24.732;2023-08-07T03:17:45;3.10;;;2.80;;
8050;SDS011;4068;42.158;24.732;2023-08-07T03:20:11;3.05;;;2.80;;
8050;SDS011;4068;42.158;24.732;2023-08-07T03:22:36;4.18;;;2.70;;
8050;SDS011;4068;42.158;24.732;2023-08-07T03:25:02;3.20;;;2.90;;
8050;SDS011;4068;42.158;24.732;2023-08-07T03:27:28;4.10;;;3.05;;
8050;SDS011;4068;42.158;24.732;2023-08-07T03:29:53;3.25;;;2.90;;
8050;SDS011;4068;42.158;24.732;2023-08-07T03:32:19;3.38;;;2.85;;
8050;SDS011;4068;42.158;24.732;2023-08-07T03:34:44;3.88;;;3.03;;
8050;SDS011;4068;42.158;24.732;2023-08-07T03:37:10;2.95;;;2.75;;
8050;SDS011;4068;42.158;24.732;2023-08-07T03:39:35;2.90;;;2.70;;
8050;SDS011;4068;42.158;24.732;2023-08-07T03:42:00;2.80;;;2.60;;
8050;SDS011;4068;42.158;24.732;2023-08-07T03:44:26;3.70;;;2.50;;
8050;SDS011;4068;42.158;24.732;2023-08-07T03:46:51;4.32;;;2.75;;
8050;SDS011;4068;42.158;24.732;2023-08-07T03:49:17;3.10;;;2.50;;
8050;SDS011;4068;42.158;24.732;2023-08-07T03:51:42;2.97;;;2.70;;
8050;SDS011;4068;42.158;24.732;2023-08-07T03:54:08;2.70;;;2.50;;
8050;SDS011;4068;42.158;24.732;2023-08-07T03:56:33;3.55;;;2.63;;
8050;SDS011;4068;42.158;24.732;2023-08-07T03:59:02;2.80;;;2.60;;
8050;SDS011;4068;42.158;24.732;2023-08-07T04:01:27;3.03;;;2.08;;
8050;SDS011;4068;42.158;24.732;2023-08-07T04:03:53;2.58;;;2.38;;
8050;SDS011;4068;42.158;24.732;2023-08-07T04:06:18;2.63;;;2.42;;
8050;SDS011;4068;42.158;24.732;2023-08-07T04:08:45;2.33;;;2.13;;
8050;SDS011;4068;42.158;24.732;2023-08-07T04:11:11;2.45;;;2.28;;
8050;SDS011;4068;42.158;24.732;2023-08-07T04:13:37;2.30;;;2.10;;
8050;SDS011;4068;42.158;24.732;2023-08-07T04:16:02;2.70;;;2.50;;
8050;SDS011;4068;42.158;24.732;2023-08-07T04:18:29;2.40;;;2.20;;
8050;SDS011;4068;42.158;24.732;2023-08-07T04:20:58;7.63;;;2.30;;
8050;SDS011;4068;42.158;24.732;2023-08-07T04:23:23;2.05;;;1.90;;
8050;SDS011;4068;42.158;24.732;2023-08-07T04:25:50;2.22;;;2.10;;
8050;SDS011;4068;42.158;24.732;2023-08-07T04:28:17;5.90;;;2.88;;
8050;SDS011;4068;42.158;24.732;2023-08-07T04:30:43;5.40;;;2.47;;
8050;SDS011;4068;42.158;24.732;2023-08-07T04:33:09;2.83;;;2.10;;
8050;SDS011;4068;42.158;24.732;2023-08-07T04:35:35;2.38;;;2.15;;
8050;SDS011;4068;42.158;24.732;2023-08-07T04:38:00;2.75;;;2.33;;
8050;SDS011;4068;42.158;24.732;2023-08-07T04:40:27;2.20;;;2.00;;
8050;SDS011;4068;42.158;24.732;2023-08-07T04:42:52;2.30;;;1.90;;
8050;SDS011;4068;42.158;24.732;2023-08-07T04:45:18;3.72;;;1.80;;
8050;SDS011;4068;42.158;24.732;2023-08-07T04:47:43;3.97;;;2.58;;
8050;SDS011;4068;42.158;24.732;2023-08-07T04:50:09;5.18;;;2.58;;
8050;SDS011;4068;42.158;24.732;2023-08-07T04:52:35;4.60;;;2.33;;
8050;SDS011;4068;42.158;24.732;2023-08-07T04:55:00;3.38;;;2.30;;
8050;SDS011;4068;42.158;24.732;2023-08-07T04:57:26;2.92;;;2.60;;
8050;SDS011;4068;42.158;24.732;2023-08-07T04:59:52;2.58;;;2.38;;
8050;SDS011;4068;42.158;24.732;2023-08-07T05:02:18;2.67;;;2.40;;
8050;SDS011;4068;42.158;24.732;2023-08-07T05:04:43;6.32;;;2.40;;
8050;SDS011;4068;42.158;24.732;2023-08-07T05:07:09;3.03;;;2.08;;
8050;SDS011;4068;42.158;24.732;2023-08-07T05:09:34;4.22;;;2.42;;
8050;SDS011;4068;42.158;24.732;2023-08-07T05:12:00;3.15;;;2.15;;
8050;SDS011;4068;42.158;24.732;2023-08-07T05:14:25;4.25;;;2.42;;
8050;SDS011;4068;42.158;24.732;2023-08-07T05:16:51;2.40;;;2.20;;
8050;SDS011;4068;42.158;24.732;2023-08-07T05:19:16;2.35;;;2.17;;
8050;SDS011;4068;42.158;24.732;2023-08-07T05:21:42;3.65;;;2.30;;
8050;SDS011;4068;42.158;24.732;2023-08-07T05:24:07;3.53;;;2.20;;
8050;SDS011;4068;42.158;24.732;2023-08-07T05:26:33;2.58;;;2.20;;
8050;SDS011;4068;42.158;24.732;2023-08-07T05:28:58;2.25;;;2.05;;
8050;SDS011;4068;42.158;24.732;2023-08-07T05:31:24;7.78;;;2.25;;
8050;SDS011;4068;42.158;24.732;2023-08-07T05:33:50;6.68;;;2.72;;
8050;SDS011;4068;42.158;24.732;2023-08-07T05:36:15;3.38;;;2.22;;
8050;SDS011;4068;42.158;24.732;2023-08-07T05:38:41;2.40;;;2.20;;
8050;SDS011;4068;42.158;24.732;2023-08-07T05:41:08;4.15;;;2.25;;
8050;SDS011;4068;42.158;24.732;2023-08-07T05:43:34;2.30;;;2.20;;
8050;SDS011;4068;42.158;24.732;2023-08-07T05:46:00;3.38;;;2.60;;
8050;SDS011;4068;42.158;24.732;2023-08-07T05:48:25;2.30;;;2.20;;
8050;SDS011;4068;42.158;24.732;2023-08-07T05:50:51;5.70;;;3.58;;
8050;SDS011;4068;42.158;24.732;2023-08-07T05:53:17;6.53;;;3.05;;
8050;SDS011;4068;42.158;24.732;2023-08-07T05:55:42;2.72;;;2.53;;
8050;SDS011;4068;42.158;24.732;2023-08-07T05:58:08;2.53;;;2.33;;
8050;SDS011;4068;42.158;24.732;2023-08-07T06:00:33;2.38;;;2.17;;
8050;SDS011;4068;42.158;24.732;2023-08-07T06:02:59;3.60;;;2.45;;
8050;SDS011;4068;42.158;24.732;2023-08-07T06:05:25;2.88;;;2.58;;
8050;SDS011;4068;42.158;24.732;2023-08-07T06:07:50;2.75;;;2.50;;
8050;SDS011;4068;42.158;24.732;2023-08-07T06:10:16;4.28;;;2.50;;
8050;SDS011;4068;42.158;24.732;2023-08-07T06:12:41;2.80;;;2.60;;
8050;SDS011;4068;42.158;24.732;2023-08-07T06:15:07;2.40;;;2.17;;
8050;SDS011;4068;42.158;24.732;2023-08-07T06:17:33;3.25;;;2.30;;
8050;SDS011;4068;42.158;24.732;2023-08-07T06:19:59;3.47;;;2.88;;
8050;SDS011;4068;42.158;24.732;2023-08-07T06:22:25;3.17;;;2.75;;
8050;SDS011;4068;42.158;24.732;2023-08-07T06:24:50;3.42;;;2.50;;
8050;SDS011;4068;42.158;24.732;2023-08-07T06:27:15;1.92;;;1.83;;
8050;SDS011;4068;42.158;24.732;2023-08-07T06:29:41;2.58;;;2.20;;
8050;SDS011;4068;42.158;24.732;2023-08-07T06:32:06;2.15;;;2.00;;
8050;SDS011;4068;42.158;24.732;2023-08-07T06:34:32;2.50;;;2.30;;
8050;SDS011;4068;42.158;24.732;2023-08-07T06:36:57;2.75;;;2.10;;
8050;SDS011;4068;42.158;24.732;2023-08-07T06:39:23;2.22;;;2.10;;
8050;SDS011;4068;42.158;24.732;2023-08-07T06:41:48;2.17;;;1.98;;
8050;SDS011;4068;42.158;24.732;2023-08-07T06:44:14;3.65;;;2.50;;
8050;SDS011;4068;42.158;24.732;2023-08-07T06:46:39;6.63;;;2.20;;
8050;SDS011;4068;42.158;24.732;2023-08-07T06:49:04;2.92;;;1.90;;
8050;SDS011;4068;42.158;24.732;2023-08-07T06:51:30;2.38;;;2.17;;
8050;SDS011;4068;42.158;24.732;2023-08-07T06:53:55;6.20;;;4.63;;
8050;SDS011;4068;42.158;24.732;2023-08-07T06:56:21;2.30;;;2.10;;
8050;SDS011;4068;42.158;24.732;2023-08-07T06:58:46;2.72;;;2.53;;
8050;SDS011;4068;42.158;24.732;2023-08-07T07:01:12;4.35;;;2.33;;
8050;SDS011;4068;42.158;24.732;2023-08-07T07:03:37;2.30;;;2.10;;
8050;SDS011;4068;42.158;24.732;2023-08-07T07:06:03;2.50;;;2.30;;
8050;SDS011;4068;42.158;24.732;2023-08-07T07:08:28;2.40;;;2.20;;
8050;SDS011;4068;42.158;24.732;2023-08-07T07:10:54;2.63;;;2.42;;
8050;SDS011;4068;42.158;24.732;2023-08-07T07:13:19;2.70;;;2.30;;
8050;SDS011;4068;42.158;24.732;2023-08-07T07:15:45;3.35;;;2.10;;
8050;SDS011;4068;42.158;24.732;2023-08-07T07:18:10;3.63;;;2.38;;
8050;SDS011;4068;42.158;24.732;2023-08-07T07:20:36;2.38;;;2.17;;
8050;SDS011;4068;42.158;24.732;2023-08-07T07:23:01;2.55;;;2.20;;
8050;SDS011;4068;42.158;24.732;2023-08-07T07:25:26;2.10;;;2.00;;
8050;SDS011;4068;42.158;24.732;2023-08-07T07:27:52;4.65;;;1.90;;
8050;SDS011;4068;42.158;24.732;2023-08-07T07:30:17;2.60;;;2.22;;
8050;SDS011;4068;42.158;24.732;2023-08-07T07:32:43;2.35;;;2.15;;
8050;SDS011;4068;42.158;24.732;2023-08-07T07:35:08;2.15;;;1.90;;
8050;SDS011;4068;42.158;24.732;2023-08-07T07:37:34;2.38;;;2.17;;
8050;SDS011;4068;42.158;24.732;2023-08-07T07:39:59;2.20;;;2.00;;
8050;SDS011;4068;42.158;24.732;2023-08-07T07:42:24;2.00;;;1.90;;
8050;SDS011;4068;42.158;24.732;2023-08-07T07:44:50;4.63;;;1.90;;
8050;SDS011;4068;42.158;24.732;2023-08-07T07:47:15;4.65;;;2.00;;
8050;SDS011;4068;42.158;24.732;2023-08-07T07:49:44;3.20;;;1.75;;
8050;SDS011;4068;42.158;24.732;2023-08-07T07:52:12;1.92;;;1.83;;
8050;SDS011;4068;42.158;24.732;2023-08-07T07:54:38;2.63;;;2.00;;
8050;SDS011;4068;42.158;24.732;2023-08-07T07:57:03;3.40;;;1.67;;
8050;SDS011;4068;42.158;24.732;2023-08-07T07:59:29;2.00;;;1.80;;
8050;SDS011;4068;42.158;24.732;2023-08-07T08:01:54;3.58;;;1.70;;
8050;SDS011;4068;42.158;24.732;2023-08-07T08:04:20;3.63;;;2.58;;
8050;SDS011;4068;42.158;24.732;2023-08-07T08:06:45;1.67;;;1.58;;
8050;SDS011;4068;42.158;24.732;2023-08-07T08:09:13;1.83;;;1.70;;
8050;SDS011;4068;42.158;24.732;2023-08-07T08:11:38;2.00;;;1.73;;
8050;SDS011;4068;42.158;24.732;2023-08-07T08:14:04;2.10;;;1.70;;
8050;SDS011;4068;42.158;24.732;2023-08-07T08:16:29;1.95;;;1.83;;
8050;SDS011;4068;42.158;24.732;2023-08-07T08:18:55;1.60;;;1.50;;
8050;SDS011;4068;42.158;24.732;2023-08-07T08:21:20;2.63;;;1.80;;
8050;SDS011;4068;42.158;24.732;2023-08-07T08:23:46;5.05;;;2.63;;
8050;SDS011;4068;42.158;24.732;2023-08-07T08:26:11;2.72;;;1.80;;
8050;SDS011;4068;42.158;24.732;2023-08-07T08:28:37;4.65;;;1.75;;
8050;SDS011;4068;42.158;24.732;2023-08-07T08:31:03;2.00;;;1.80;;
8050;SDS011;4068;42.158;24.732;2023-08-07T08:33:28;3.13;;;1.65;;
8050;SDS011;4068;42.158;24.732;2023-08-07T08:35:54;1.63;;;1.52;;
8050;SDS011;4068;42.158;24.732;2023-08-07T08:38:19;1.85;;;1.65;;
8050;SDS011;4068;42.158;24.732;2023-08-07T08:40:46;2.08;;;1.85;;
8050;SDS011;4068;42.158;24.732;2023-08-07T08:43:13;2.42;;;2.03;;
8050;SDS011;4068;42.158;24.732;2023-08-07T08:45:39;1.65;;;1.55;;
8050;SDS011;4068;42.158;24.732;2023-08-07T08:48:07;3.55;;;1.60;;
8050;SDS011;4068;42.158;24.732;2023-08-07T08:50:34;2.00;;;1.90;;
8050;SDS011;4068;42.158;24.732;2023-08-07T08:53:00;1.50;;;1.40;;
8050;SDS011;4068;42.158;24.732;2023-08-07T08:55:27;2.60;;;1.75;;
8050;SDS011;4068;42.158;24.732;2023-08-07T08:57:54;4.70;;;2.00;;
8050;SDS011;4068;42.158;24.732;2023-08-07T09:00:20;1.50;;;1.40;;
8050;SDS011;4068;42.158;24.732;2023-08-07T09:02:48;1.60;;;1.50;;
8050;SDS011;4068;42.158;24.732;2023-08-07T09:05:15;3.03;;;1.67;;
8050;SDS011;4068;42.158;24.732;2023-08-07T09:07:41;1.88;;;1.65;;
8050;SDS011;4068;42.158;24.732;2023-08-07T09:10:07;4.53;;;1.90;;
8050;SDS011;4068;42.158;24.732;2023-08-07T09:12:36;5.45;;;1.77;;
8050;SDS011;4068;42.158;24.732;2023-08-07T09:15:05;2.17;;;1.30;;
8050;SDS011;4068;42.158;24.732;2023-08-07T09:17:33;1.63;;;1.52;;
8050;SDS011;4068;42.158;24.732;2023-08-07T09:20:03;3.47;;;1.38;;
8050;SDS011;4068;42.158;24.732;2023-08-07T09:22:31;1.85;;;1.40;;
8050;SDS011;4068;42.158;24.732;2023-08-07T09:24:56;2.35;;;1.30;;
8050;SDS011;4068;42.158;24.732;2023-08-07T09:27:25;1.45;;;1.33;;
8050;SDS011;4068;42.158;24.732;2023-08-07T09:29:50;1.92;;;1.40;;
8050;SDS011;4068;42.158;24.732;2023-08-07T09:32:16;1.42;;;1.40;;
8050;SDS011;4068;42.158;24.732;2023-08-07T09:34:43;1.27;;;1.25;;
8050;SDS011;4068;42.158;24.732;2023-08-07T09:37:09;1.88;;;1.60;;
8050;SDS011;4068;42.158;24.732;2023-08-07T09:39:37;1.63;;;1.52;;
8050;SDS011;4068;42.158;24.732;2023-08-07T09:42:15;1.60;;;1.50;;
8050;SDS011;4068;42.158;24.732;2023-08-07T09:44:42;1.35;;;1.25;;
8050;SDS011;4068;42.158;24.732;2023-08-07T09:47:13;1.27;;;1.27;;
8050;SDS011;4068;42.158;24.732;2023-08-07T09:49:40;1.50;;;1.40;;
8050;SDS011;4068;42.158;24.732;2023-08-07T09:52:06;1.35;;;1.30;;
8050;SDS011;4068;42.158;24.732;2023-08-07T09:54:32;1.30;;;1.20;;
8050;SDS011;4068;42.158;24.732;2023-08-07T09:56:59;1.20;;;1.20;;
8050;SDS011;4068;42.158;24.732;2023-08-07T09:59:26;1.50;;;1.40;;
8050;SDS011;4068;42.158;24.732;2023-08-07T10:01:52;1.48;;;1.38;;
8050;SDS011;4068;42.158;24.732;2023-08-07T10:04:19;1.67;;;1.58;;
8050;SDS011;4068;42.158;24.732;2023-08-07T10:06:48;1.30;;;1.20;;
8050;SDS011;4068;42.158;24.732;2023-08-07T10:09:14;1.20;;;1.20;;
8050;SDS011;4068;42.158;24.732;2023-08-07T10:11:41;1.38;;;1.27;;
8050;SDS011;4068;42.158;24.732;2023-08-07T10:14:08;1.00;;;1.00;;
8050;SDS011;4068;42.158;24.732;2023-08-07T10:16:34;1.63;;;1.40;;
8050;SDS011;4068;42.158;24.732;2023-08-07T10:19:04;1.40;;;1.30;;
8050;SDS011;4068;42.158;24.732;2023-08-07T10:21:30;1.40;;;1.30;;
8050;SDS011;4068;42.158;24.732;2023-08-07T10:23:58;1.60;;;1.30;;
8050;SDS011;4068;42.158;24.732;2023-08-07T10:26:25;1.42;;;1.23;;
8050;SDS011;4068;42.158;24.732;2023-08-07T10:28:51;2.92;;;1.40;;
8050;SDS011;4068;42.158;24.732;2023-08-07T10:31:18;1.75;;;1.23;;
8050;SDS011;4068;42.158;24.732;2023-08-07T10:33:47;1.30;;;1.20;;
8050;SDS011;4068;42.158;24.732;2023-08-07T10:36:15;1.30;;;1.30;;
8050;SDS011;4068;42.158;24.732;2023-08-07T10:38:42;1.48;;;1.38;;
8050;SDS011;4068;42.158;24.732;2023-08-07T10:41:08;1.40;;;1.30;;
8050;SDS011;4068;42.158;24.732;2023-08-07T10:43:41;2.63;;;1.60;;
8050;SDS011;4068;42.158;24.732;2023-08-07T10:46:28;1.90;;;1.67;;
8050;SDS011;4068;42.158;24.732;2023-08-07T10:49:12;4.05;;;1.50;;
8050;SDS011;4068;42.158;24.732;2023-08-07T10:51:57;5.40;;;4.60;;
8050;SDS011;4068;42.158;24.732;2023-08-07T10:54:23;2.22;;;1.70;;
8050;SDS011;4068;42.158;24.732;2023-08-07T10:56:52;1.40;;;1.30;;
8050;SDS011;4068;42.158;24.732;2023-08-07T10:59:19;1.60;;;1.50;;
8050;SDS011;4068;42.158;24.732;2023-08-07T11:01:50;2.40;;;1.60;;
8050;SDS011;4068;42.158;24.732;2023-08-07T11:04:16;1.92;;;1.20;;
8050;SDS011;4068;42.158;24.732;2023-08-07T11:06:43;1.40;;;1.30;;
8050;SDS011;4068;42.158;24.732;2023-08-07T11:09:12;1.20;;;1.10;;
8050;SDS011;4068;42.158;24.732;2023-08-07T11:11:45;1.30;;;1.20;;
8050;SDS011;4068;42.158;24.732;2023-08-07T11:14:13;1.25;;;1.20;;
8050;SDS011;4068;42.158;24.732;2023-08-07T11:16:43;1.38;;;1.25;;
8050;SDS011;4068;42.158;24.732;2023-08-07T11:19:10;1.50;;;1.40;;
8050;SDS011;4068;42.158;24.732;2023-08-07T11:21:38;4.22;;;1.30;;
8050;SDS011;4068;42.158;24.732;2023-08-07T11:24:03;1.20;;;1.10;;
8050;SDS011;4068;42.158;24.732;2023-08-07T11:26:29;1.88;;;1.38;;
8050;SDS011;4068;42.158;24.732;2023-08-07T11:28:55;1.60;;;1.20;;
8050;SDS011;4068;42.158;24.732;2023-08-07T11:34:05;3.30;;;1.30;;
8050;SDS011;4068;42.158;24.732;2023-08-07T11:36:30;1.30;;;1.20;;
8050;SDS011;4068;42.158;24.732;2023-08-07T11:38:57;1.73;;;1.63;;
8050;SDS011;4068;42.158;24.732;2023-08-07T11:41:22;2.33;;;1.40;;
8050;SDS011;4068;42.158;24.732;2023-08-07T11:43:48;1.40;;;1.30;;
8050;SDS011;4068;42.158;24.732;2023-08-07T11:46:14;3.42;;;1.60;;
8050;SDS011;4068;42.158;24.732;2023-08-07T11:48:41;1.80;;;1.70;;
8050;SDS011;4068;42.158;24.732;2023-08-07T11:51:07;1.77;;;1.65;;
8050;SDS011;4068;42.158;24.732;2023-08-07T11:53:33;3.00;;;2.10;;
8050;SDS011;4068;42.158;24.732;2023-08-07T11:56:02;2.20;;;1.70;;
8050;SDS011;4068;42.158;24.732;2023-08-07T11:58:33;3.22;;;1.92;;
8050;SDS011;4068;42.158;24.732;2023-08-07T12:01:09;4.18;;;2.65;;
8050;SDS011;4068;42.158;24.732;2023-08-07T12:03:36;3.15;;;1.90;;
8050;SDS011;4068;42.158;24.732;2023-08-07T12:06:04;2.08;;;1.88;;
8050;SDS011;4068;42.158;24.732;2023-08-07T12:08:36;2.45;;;2.03;;
8050;SDS011;4068;42.158;24.732;2023-08-07T12:11:03;4.18;;;1.70;;
8050;SDS011;4068;42.158;24.732;2023-08-07T12:13:29;4.72;;;2.38;;
8050;SDS011;4068;42.158;24.732;2023-08-07T12:15:57;1.70;;;1.60;;
8050;SDS011;4068;42.158;24.732;2023-08-07T12:18:23;3.10;;;1.60;;
8050;SDS011;4068;42.158;24.732;2023-08-07T12:20:51;1.80;;;1.70;;
8050;SDS011;4068;42.158;24.732;2023-08-07T12:23:17;1.65;;;1.50;;
8050;SDS011;4068;42.158;24.732;2023-08-07T12:25:47;4.82;;;1.70;;
8050;SDS011;4068;42.158;24.732;2023-08-07T12:28:12;5.43;;;4.18;;
8050;SDS011;4068;42.158;24.732;2023-08-07T12:30:38;1.83;;;1.63;;
8050;SDS011;4068;42.158;24.732;2023-08-07T12:33:04;1.55;;;1.42;;
8050;SDS011;4068;42.158;24.732;2023-08-07T12:35:31;1.98;;;1.85;;
8050;SDS011;4068;42.158;24.732;2023-08-07T12:37:57;1.67;;;1.58;;
8050;SDS011;4068;42.158;24.732;2023-08-07T12:40:22;3.13;;;1.50;;
8050;SDS011;4068;42.158;24.732;2023-08-07T12:42:48;1.50;;;1.40;;
8050;SDS011;4068;42.158;24.732;2023-08-07T12:45:14;2.13;;;1.48;;
8050;SDS011;4068;42.158;24.732;2023-08-07T12:47:41;1.70;;;1.60;;
8050;SDS011;4068;42.158;24.732;2023-08-07T12:50:07;2.67;;;2.47;;
8050;SDS011;4068;42.158;24.732;2023-08-07T12:52:33;5.22;;;3.10;;
8050;SDS011;4068;42.158;24.732;2023-08-07T12:54:59;2.38;;;1.60;;
8050;SDS011;4068;42.158;24.732;2023-08-07T12:57:25;2.25;;;1.60;;
8050;SDS011;4068;42.158;24.732;2023-08-07T12:59:51;4.57;;;1.90;;
8050;SDS011;4068;42.158;24.732;2023-08-07T13:02:17;2.75;;;2.00;;
8050;SDS011;4068;42.158;24.732;2023-08-07T13:04:42;4.60;;;2.50;;
8050;SDS011;4068;42.158;24.732;2023-08-07T13:07:07;4.70;;;2.55;;
8050;SDS011;4068;42.158;24.732;2023-08-07T13:09:33;2.63;;;2.28;;
8050;SDS011;4068;42.158;24.732;2023-08-07T13:11:58;8.93;;;2.60;;
8050;SDS011;4068;42.158;24.732;2023-08-07T13:14:24;2.83;;;2.42;;
8050;SDS011;4068;42.158;24.732;2023-08-07T13:16:50;3.75;;;2.58;;
8050;SDS011;4068;42.158;24.732;2023-08-07T13:19:16;2.22;;;1.98;;
8050;SDS011;4068;42.158;24.732;2023-08-07T13:21:41;3.13;;;2.83;;
8050;SDS011;4068;42.158;24.732;2023-08-07T13:24:07;3.53;;;2.20;;
8050;SDS011;4068;42.158;24.732;2023-08-07T13:26:32;5.50;;;2.38;;
8050;SDS011;4068;42.158;24.732;2023-08-07T13:28:57;6.72;;;2.42;;
8050;SDS011;4068;42.158;24.732;2023-08-07T13:31:23;2.95;;;1.77;;
8050;SDS011;4068;42.158;24.732;2023-08-07T13:33:48;4.00;;;2.10;;
8050;SDS011;4068;42.158;24.732;2023-08-07T13:36:14;3.17;;;2.15;;
8050;SDS011;4068;42.158;24.732;2023-08-07T13:38:39;3.92;;;2.40;;
8050;SDS011;4068;42.158;24.732;2023-08-07T13:41:05;6.38;;;3.00;;
8050;SDS011;4068;42.158;24.732;2023-08-07T13:43:31;4.22;;;3.10;;
8050;SDS011;4068;42.158;24.732;2023-08-07T13:45:57;2.33;;;2.13;;
8050;SDS011;4068;42.158;24.732;2023-08-07T13:48:23;3.08;;;2.30;;
8050;SDS011;4068;42.158;24.732;2023-08-07T13:50:51;2.55;;;2.30;;
8050;SDS011;4068;42.158;24.732;2023-08-07T13:53:18;6.47;;;2.42;;
8050;SDS011;4068;42.158;24.732;2023-08-07T13:55:44;3.20;;;2.75;;
8050;SDS011;4068;42.158;24.732;2023-08-07T13:58:11;2.78;;;1.90;;
8050;SDS011;4068;42.158;24.732;2023-08-07T14:00:37;2.80;;;2.10;;
8050;SDS011;4068;42.158;24.732;2023-08-07T14:03:04;2.00;;;1.80;;
8050;SDS011;4068;42.158;24.732;2023-08-07T14:05:30;1.85;;;1.75;;
8050;SDS011;4068;42.158;24.732;2023-08-07T14:07:55;2.47;;;1.70;;
8050;SDS011;4068;42.158;24.732;2023-08-07T14:10:22;1.70;;;1.60;;
8050;SDS011;4068;42.158;24.732;2023-08-07T14:12:48;2.08;;;1.60;;
8050;SDS011;4068;42.158;24.732;2023-08-07T14:15:13;2.38;;;1.85;;
8050;SDS011;4068;42.158;24.732;2023-08-07T14:17:39;2.65;;;1.70;;
8050;SDS011;4068;42.158;24.732;2023-08-07T14:20:04;2.85;;;2.40;;
8050;SDS011;4068;42.158;24.732;2023-08-07T14:22:30;2.10;;;1.92;;
8050;SDS011;4068;42.158;24.732;2023-08-07T14:24:57;5.82;;;3.13;;
8050;SDS011;4068;42.158;24.732;2023-08-07T14:27:22;2.35;;;2.15;;
8050;SDS011;4068;42.158;24.732;2023-08-07T14:29:48;2.15;;;1.95;;
8050;SDS011;4068;42.158;24.732;2023-08-07T14:32:13;1.90;;;1.80;;
8050;SDS011;4068;42.158;24.732;2023-08-07T14:34:38;3.97;;;2.10;;
8050;SDS011;4068;42.158;24.732;2023-08-07T14:37:04;5.10;;;2.05;;
8050;SDS011;4068;42.158;24.732;2023-08-07T14:39:30;2.28;;;1.92;;
8050;SDS011;4068;42.158;24.732;2023-08-07T14:41:55;1.70;;;1.60;;
8050;SDS011;4068;42.158;24.732;2023-08-07T14:44:21;2.10;;;1.80;;
8050;SDS011;4068;42.158;24.732;2023-08-07T14:46:46;3.00;;;2.30;;
8050;SDS011;4068;42.158;24.732;2023-08-07T14:49:12;1.90;;;1.70;;
8050;SDS011;4068;42.158;24.732;2023-08-07T14:51:37;2.67;;;1.40;;
8050;SDS011;4068;42.158;24.732;2023-08-07T14:54:02;1.77;;;1.67;;
8050;SDS011;4068;42.158;24.732;2023-08-07T14:56:28;1.77;;;1.67;;
8050;SDS011;4068;42.158;24.732;2023-08-07T14:58:53;4.10;;;1.85;;
8050;SDS011;4068;42.158;24.732;2023-08-07T15:01:19;7.60;;;1.70;;
8050;SDS011;4068;42.158;24.732;2023-08-07T15:03:45;1.70;;;1.60;;
8050;SDS011;4068;42.158;24.732;2023-08-07T15:06:10;1.60;;;1.50;;
8050;SDS011;4068;42.158;24.732;2023-08-07T15:08:36;2.17;;;1.90;;